Time,TemperatureF,DewpointF,PressureIn,WindDirection,WindDirectionDegrees,WindSpeedMPH,WindSpeedGustMPH,Humidity,HourlyPrecipIn,Conditions,Clouds,dailyrainin,SolarRadiationWatts/m^2,SoftwareType,DateUTC
2013-07-23 00:02:00,63.7,57.4,29.72,NNE,12,0.0,0.0,80,0.00,,CLR,0.00,0.00,VWS V14.01,2013-07-23 05:02:00,
2013-07-23 00:07:00,63.5,57.2,29.72,NNE,13,0.0,0.0,80,0.00,,CLR,0.00,0.00,VWS V14.01,2013-07-23 05:07:00,
2013-07-23 00:12:00,63.2,57.6,29.72,NNE,13,0.0,0.0,82,0.00,,CLR,0.00,0.00,VWS V14.01,2013-07-23 05:12:00,
2013-07-23 00:17:00,62.9,57.7,29.72,NNE,12,0.0,1.0,83,0.00,,CLR,0.00,0.00,VWS V14.01,2013-07-23 05:17:00,
2013-07-23 00:22:00,62.3,57.1,29.72,NNE,12,0.0,1.0,83,0.00,,CLR,0.00,0.00,VWS V14.01,2013-07-23 05:22:00,
2013-07-23 00:27:00,61.8,56.6,29.72,NW,312,0.0,3.0,83,0.00,,CLR,0.00,0.00,VWS V14.01,2013-07-23 05:27:00,
2013-07-23 00:32:00,61.6,56.4,29.72,NW,312,0.0,2.0,83,0.00,,CLR,0.00,0.00,VWS V14.01,2013-07-23 05:32:00,
2013-07-23 00:37:00,61.6,56.4,29.73,NW,312,0.0,2.0,83,0.00,,CLR,0.00,0.00,VWS V14.01,2013-07-23 05:37:00,
2013-07-23 00:42:00,61.4,56.5,29.73,NW,312,1.0,3.0,84,0.00,,CLR,0.00,0.00,VWS V14.01,2013-07-23 05:42:00,
2013-07-23 00:47:00,61.2,56.3,29.73,NW,312,2.0,3.0,84,0.00,,CLR,0.00,0.00,VWS V14.01,2013-07-23 05:47:00,
2013-07-23 00:52:00,61.3,56.4,29.73,NW,312,1.0,3.0,84,0.00,,CLR,0.00,0.00,VWS V14.01,2013-07-23 05:52:00,
2013-07-23 00:57:00,61.2,56.3,29.74,NW,311,2.0,3.0,84,0.00,,CLR,0.00,0.00,VWS V14.01,2013-07-23 05:57:00,
2013-07-23 01:02:00,61.0,56.1,29.74,NW,311,0.0,3.0,84,0.00,,CLR,0.00,0.00,VWS V14.01,2013-07-23 06:02:00,
2013-07-23 01:07:00,60.9,56.0,29.74,NW,304,4.0,5.0,84,0.00,,CLR,0.00,0.00,VWS V14.01,2013-07-23 06:07:00,
2013-07-23 01:12:00,60.8,55.9,29.74,NW,304,0.0,5.0,84,0.00,,CLR,0.00,0.00,VWS V14.01,2013-07-23 06:12:00,
2013-07-23 01:17:00,60.8,55.9,29.74,NW,304,1.0,5.0,84,0.00,,CLR,0.00,0.00,VWS V14.01,2013-07-23 06:17:00,
2013-07-23 01:22:00,60.9,56.0,29.74,NW,304,0.0,5.0,84,0.00,,CLR,0.00,0.00,VWS V14.01,2013-07-23 06:22:00,
2013-07-23 01:27:00,60.9,56.0,29.75,NW,304,0.0,5.0,84,0.00,,CLR,0.00,0.00,VWS V14.01,2013-07-23 06:27:00,
2013-07-23 01:32:00,60.7,55.8,29.75,NW,304,0.0,2.0,84,0.00,,CLR,0.00,0.00,VWS V14.01,2013-07-23 06:32:00,
2013-07-23 01:37:00,60.6,55.8,29.75,NW,304,0.0,2.0,84,0.00,,CLR,0.00,0.00,VWS V14.01,2013-07-23 06:37:00,
2013-07-23 01:42:00,60.5,55.7,29.75,NW,304,0.0,3.0,84,0.00,,CLR,0.00,0.00,VWS V14.01,2013-07-23 06:42:00,
2013-07-23 01:47:00,60.3,55.8,29.75,NW,304,2.0,3.0,85,0.00,,CLR,0.00,0.00,VWS V14.01,2013-07-23 06:47:00,
2013-07-23 01:52:00,60.1,55.6,29.75,WNW,295,0.0,5.0,85,0.00,,CLR,0.00,0.00,VWS V14.01,2013-07-23 06:52:00,
2013-07-23 01:57:00,60.0,55.5,29.75,WNW,298,2.0,5.0,85,0.00,,CLR,0.00,0.00,VWS V14.01,2013-07-23 06:57:00,
2013-07-23 02:02:00,59.9,55.4,29.75,NW,312,0.0,3.0,85,0.00,,CLR,0.00,0.00,VWS V14.01,2013-07-23 07:02:00,
2013-07-23 02:07:00,59.7,55.2,29.75,NW,312,0.0,3.0,85,0.00,,CLR,0.00,0.00,VWS V14.01,2013-07-23 07:07:00,
2013-07-23 02:12:00,59.5,55.0,29.75,NW,312,0.0,3.0,85,0.00,,CLR,0.00,0.00,VWS V14.01,2013-07-23 07:12:00,
2013-07-23 02:17:00,59.4,54.9,29.75,NW,312,0.0,3.0,85,0.00,,CLR,0.00,0.00,VWS V14.01,2013-07-23 07:17:00,
2013-07-23 02:22:00,59.2,55.0,29.75,NW,313,2.0,3.0,86,0.00,,CLR,0.00,0.00,VWS V14.01,2013-07-23 07:22:00,
2013-07-23 02:27:00,59.1,54.9,29.75,NW,312,0.0,3.0,86,0.00,,CLR,0.00,0.00,VWS V14.01,2013-07-23 07:27:00,
2013-07-23 02:32:00,59.1,54.9,29.75,NW,312,0.0,1.0,86,0.00,,CLR,0.00,0.00,VWS V14.01,2013-07-23 07:32:00,
2013-07-23 02:37:00,59.0,54.8,29.75,NW,312,0.0,2.0,86,0.00,,CLR,0.00,0.00,VWS V14.01,2013-07-23 07:37:00,
2013-07-23 02:42:00,59.0,55.1,29.75,NW,312,0.0,2.0,87,0.00,,CLR,0.00,0.00,VWS V14.01,2013-07-23 07:42:00,
2013-07-23 02:47:00,58.8,55.0,29.75,NW,305,1.0,5.0,87,0.00,,CLR,0.00,0.00,VWS V14.01,2013-07-23 07:47:00,
2013-07-23 02:52:00,58.6,54.8,29.75,NW,305,0.0,5.0,87,0.00,,CLR,0.00,0.00,VWS V14.01,2013-07-23 07:52:00,
2013-07-23 02:57:00,58.4,54.5,29.75,WNW,300,0.0,5.0,87,0.00,,CLR,0.00,0.00,VWS V14.01,2013-07-23 07:57:00,
2013-07-23 03:02:00,58.2,54.4,29.75,WNW,301,4.0,4.0,87,0.00,,CLR,0.00,0.00,VWS V14.01,2013-07-23 08:02:00,
2013-07-23 03:07:00,58.2,54.7,29.75,NW,308,0.0,4.0,88,0.00,,CLR,0.00,0.00,VWS V14.01,2013-07-23 08:07:00,
2013-07-23 03:12:00,58.1,54.6,29.75,NW,308,1.0,4.0,88,0.00,,CLR,0.00,0.00,VWS V14.01,2013-07-23 08:12:00,
2013-07-23 03:17:00,57.9,54.4,29.75,NW,308,0.0,4.0,88,0.00,,CLR,0.00,0.00,VWS V14.01,2013-07-23 08:17:00,
2013-07-23 03:22:00,57.7,54.2,29.76,NW,308,0.0,4.0,88,0.00,,CLR,0.00,0.00,VWS V14.01,2013-07-23 08:22:00,
2013-07-23 03:27:00,57.5,54.0,29.75,NW,308,0.0,4.0,88,0.00,,CLR,0.00,0.00,VWS V14.01,2013-07-23 08:27:00,
2013-07-23 03:32:00,57.3,53.8,29.75,NW,316,0.0,4.0,88,0.00,,CLR,0.00,0.00,VWS V14.01,2013-07-23 08:32:00,
2013-07-23 03:37:00,57.2,53.7,29.76,NW,316,2.0,4.0,88,0.00,,CLR,0.00,0.00,VWS V14.01,2013-07-23 08:37:00,
2013-07-23 03:42:00,57.2,53.7,29.76,NW,311,4.0,6.0,88,0.00,,CLR,0.00,0.00,VWS V14.01,2013-07-23 08:42:00,
2013-07-23 03:47:00,57.3,54.1,29.76,NW,311,3.0,6.0,89,0.00,,CLR,0.00,0.00,VWS V14.01,2013-07-23 08:47:00,
2013-07-23 03:52:00,57.3,53.8,29.76,NW,309,2.0,6.0,88,0.00,,CLR,0.00,0.00,VWS V14.01,2013-07-23 08:52:00,
2013-07-23 03:57:00,57.3,53.8,29.76,NW,309,2.0,6.0,88,0.00,,CLR,0.00,0.00,VWS V14.01,2013-07-23 08:57:00,
2013-07-23 04:02:00,57.2,53.7,29.76,NW,313,0.0,3.0,88,0.00,,CLR,0.00,0.00,VWS V14.01,2013-07-23 09:02:00,
2013-07-23 04:08:00,57.1,53.6,29.76,NW,313,2.0,4.0,88,0.00,,CLR,0.00,0.00,VWS V14.01,2013-07-23 09:08:00,
2013-07-23 04:13:00,57.0,53.5,29.76,WNW,294,3.0,4.0,88,0.00,,CLR,0.00,0.00,VWS V14.01,2013-07-23 09:13:00,
2013-07-23 04:18:00,57.0,53.5,29.76,NW,314,0.0,4.0,88,0.00,,CLR,0.00,0.00,VWS V14.01,2013-07-23 09:18:00,
2013-07-23 04:23:00,56.9,53.4,29.76,NW,314,0.0,4.0,88,0.00,,CLR,0.00,0.00,VWS V14.01,2013-07-23 09:23:00,
2013-07-23 04:28:00,56.8,53.6,29.76,NW,314,0.0,4.0,89,0.00,,CLR,0.00,0.00,VWS V14.01,2013-07-23 09:28:00,
2013-07-23 04:33:00,56.7,53.5,29.76,NW,314,0.0,0.0,89,0.00,,CLR,0.00,0.00,VWS V14.01,2013-07-23 09:33:00,
2013-07-23 04:38:00,56.7,53.5,29.76,NW,314,0.0,0.0,89,0.00,,CLR,0.00,0.00,VWS V14.01,2013-07-23 09:38:00,
2013-07-23 04:43:00,56.5,53.3,29.76,NW,314,0.0,0.0,89,0.00,,CLR,0.00,0.00,VWS V14.01,2013-07-23 09:43:00,
2013-07-23 04:48:00,56.3,53.1,29.77,NW,314,0.0,0.0,89,0.00,,CLR,0.00,0.00,VWS V14.01,2013-07-23 09:48:00,
2013-07-23 04:53:00,56.1,52.9,29.77,NW,314,0.0,2.0,89,0.00,,CLR,0.00,0.00,VWS V14.01,2013-07-23 09:53:00,
2013-07-23 04:58:00,56.0,52.8,29.77,NW,314,1.0,2.0,89,0.00,,CLR,0.00,0.00,VWS V14.01,2013-07-23 09:58:00,
2013-07-23 05:03:00,56.0,52.8,29.77,NW,314,1.0,1.0,89,0.00,,CLR,0.00,0.00,VWS V14.01,2013-07-23 10:03:00,
2013-07-23 05:08:00,55.9,52.7,29.77,NW,314,0.0,2.0,89,0.00,,CLR,0.00,0.00,VWS V14.01,2013-07-23 10:08:00,
2013-07-23 05:13:00,55.8,52.6,29.78,NW,314,1.0,2.0,89,0.00,,CLR,0.00,0.00,VWS V14.01,2013-07-23 10:13:00,
2013-07-23 05:18:00,55.8,52.6,29.78,NW,314,0.0,2.0,89,0.00,,CLR,0.00,0.00,VWS V14.01,2013-07-23 10:18:00,
2013-07-23 05:23:00,55.8,52.6,29.78,NW,314,0.0,2.0,89,0.00,,CLR,0.00,0.00,VWS V14.01,2013-07-23 10:23:00,
2013-07-23 05:28:00,55.5,52.3,29.78,NW,314,0.0,2.0,89,0.00,,CLR,0.00,0.00,VWS V14.01,2013-07-23 10:28:00,
2013-07-23 05:33:00,55.4,53.1,29.78,NW,314,0.0,0.0,92,0.00,,CLR,0.00,0.00,VWS V14.01,2013-07-23 10:33:00,
2013-07-23 05:38:00,55.3,52.1,29.79,NW,314,0.0,1.0,89,0.00,,CLR,0.00,0.00,VWS V14.01,2013-07-23 10:38:00,
2013-07-23 05:43:00,55.2,52.0,29.79,NW,314,0.0,1.0,89,0.00,,CLR,0.00,0.00,VWS V14.01,2013-07-23 10:43:00,
2013-07-23 05:48:00,55.2,52.0,29.79,NW,314,0.0,1.0,89,0.00,,CLR,0.00,0.00,VWS V14.01,2013-07-23 10:48:00,
2013-07-23 05:53:00,55.0,51.8,29.79,NW,314,0.0,1.0,89,0.00,,CLR,0.00,5.00,VWS V14.01,2013-07-23 10:53:00,
2013-07-23 05:58:00,54.5,51.3,29.80,NW,314,2.0,3.0,89,0.00,,CLR,0.00,7.00,VWS V14.01,2013-07-23 10:58:00,
2013-07-23 06:03:00,54.4,51.2,29.80,NW,314,3.0,3.0,89,0.00,,CLR,0.00,7.00,VWS V14.01,2013-07-23 11:03:00,
2013-07-23 06:08:00,54.8,51.6,29.80,NW,309,1.0,5.0,89,0.00,,CLR,0.00,9.00,VWS V14.01,2013-07-23 11:08:00,
2013-07-23 06:13:00,54.9,51.7,29.81,NW,322,0.0,5.0,89,0.00,,CLR,0.00,11.00,VWS V14.01,2013-07-23 11:13:00,
2013-07-23 06:18:00,54.9,51.7,29.80,NW,322,0.0,5.0,89,0.00,,CLR,0.00,11.00,VWS V14.01,2013-07-23 11:18:00,
2013-07-23 06:23:00,54.9,51.7,29.81,NW,322,0.0,5.0,89,0.00,,CLR,0.00,12.00,VWS V14.01,2013-07-23 11:23:00,
2013-07-23 06:28:00,54.9,51.7,29.81,NW,322,0.0,5.0,89,0.00,,CLR,0.00,12.00,VWS V14.01,2013-07-23 11:28:00,
2013-07-23 06:33:00,54.9,51.7,29.81,NW,322,0.0,2.0,89,0.00,,CLR,0.00,12.00,VWS V14.01,2013-07-23 11:33:00,
2013-07-23 06:38:00,54.9,51.7,29.81,NW,307,1.0,4.0,89,0.00,,CLR,0.00,14.00,VWS V14.01,2013-07-23 11:38:00,
2013-07-23 06:43:00,55.1,51.9,29.81,NNE,15,0.0,4.0,89,0.00,,CLR,0.00,14.00,VWS V14.01,2013-07-23 11:43:00,
2013-07-23 06:48:00,55.3,52.1,29.81,NNE,15,0.0,4.0,89,0.00,,CLR,0.00,16.00,VWS V14.01,2013-07-23 11:48:00,
2013-07-23 06:53:00,55.4,52.2,29.81,WNW,290,4.0,5.0,89,0.00,,CLR,0.00,16.00,VWS V14.01,2013-07-23 11:53:00,
2013-07-23 06:58:00,55.6,52.4,29.81,North,350,0.0,5.0,89,0.00,,CLR,0.00,16.00,VWS V14.01,2013-07-23 11:58:00,
2013-07-23 07:03:00,55.8,52.6,29.81,East,91,2.0,5.0,89,0.00,,CLR,0.00,18.00,VWS V14.01,2013-07-23 12:03:00,
2013-07-23 07:08:00,56.0,52.8,29.82,West,267,0.0,5.0,89,0.00,,CLR,0.00,18.00,VWS V14.01,2013-07-23 12:08:00,
2013-07-23 07:13:00,56.2,53.0,29.83,NW,322,1.0,8.0,89,0.00,,CLR,0.00,18.00,VWS V14.01,2013-07-23 12:13:00,
2013-07-23 07:18:00,56.3,53.1,29.83,NW,319,1.0,8.0,89,0.00,,CLR,0.00,19.00,VWS V14.01,2013-07-23 12:18:00,
2013-07-23 07:23:00,56.5,53.3,29.82,NW,319,0.0,8.0,89,0.00,,CLR,0.00,19.00,VWS V14.01,2013-07-23 12:23:00,
2013-07-23 07:28:00,56.7,53.5,29.83,NW,307,0.0,8.0,89,0.00,,CLR,0.00,19.00,VWS V14.01,2013-07-23 12:28:00,
2013-07-23 07:33:00,56.8,53.6,29.83,SSE,151,0.0,2.0,89,0.00,,CLR,0.00,21.00,VWS V14.01,2013-07-23 12:33:00,
2013-07-23 07:38:00,57.0,53.8,29.83,WNW,296,0.0,2.0,89,0.00,,CLR,0.00,23.00,VWS V14.01,2013-07-23 12:38:00,
2013-07-23 07:43:00,57.2,53.7,29.83,NW,317,3.0,4.0,88,0.00,,CLR,0.00,21.00,VWS V14.01,2013-07-23 12:43:00,
2013-07-23 07:48:00,57.6,54.1,29.83,North,355,0.0,6.0,88,0.00,,CLR,0.00,23.00,VWS V14.01,2013-07-23 12:48:00,
2013-07-23 07:53:00,57.8,54.3,29.83,NNW,347,2.0,6.0,88,0.00,,CLR,0.00,23.00,VWS V14.01,2013-07-23 12:53:00,
2013-07-23 07:58:00,58.0,54.2,29.83,NW,320,0.0,6.0,87,0.00,,CLR,0.00,25.00,VWS V14.01,2013-07-23 12:58:00,
2013-07-23 08:03:00,58.2,53.7,29.83,North,10,0.0,3.0,85,0.00,,CLR,0.00,25.00,VWS V14.01,2013-07-23 13:03:00,
2013-07-23 08:08:00,58.4,53.9,29.83,NW,323,0.0,4.0,85,0.00,,CLR,0.00,25.00,VWS V14.01,2013-07-23 13:08:00,
2013-07-23 08:13:00,58.7,54.2,29.83,NE,49,0.0,4.0,85,0.00,,CLR,0.00,26.00,VWS V14.01,2013-07-23 13:13:00,
2013-07-23 08:18:00,58.8,54.0,29.84,NNW,336,0.0,4.0,84,0.00,,CLR,0.00,28.00,VWS V14.01,2013-07-23 13:18:00,
2013-07-23 08:23:00,58.9,54.1,29.84,West,275,5.0,5.0,84,0.00,,CLR,0.00,28.00,VWS V14.01,2013-07-23 13:23:00,
2013-07-23 08:28:00,59.1,54.0,29.84,NNW,340,0.0,6.0,83,0.00,,CLR,0.00,32.00,VWS V14.01,2013-07-23 13:28:00,
2013-07-23 08:33:00,59.2,53.7,29.85,NE,50,0.0,4.0,82,0.00,,CLR,0.00,51.00,VWS V14.01,2013-07-23 13:33:00,
2013-07-23 08:38:00,59.4,54.6,29.85,WNW,294,0.0,4.0,84,0.00,,CLR,0.00,44.00,VWS V14.01,2013-07-23 13:38:00,
2013-07-23 08:43:00,59.5,54.0,29.86,NW,314,2.0,4.0,82,0.00,,CLR,0.00,56.00,VWS V14.01,2013-07-23 13:43:00,
2013-07-23 08:48:00,59.8,54.3,29.86,WNW,284,0.0,9.0,82,0.00,,CLR,0.00,165.00,VWS V14.01,2013-07-23 13:48:00,
2013-07-23 08:53:00,60.1,54.6,29.86,NNW,348,2.0,9.0,82,0.00,,CLR,0.00,141.00,VWS V14.01,2013-07-23 13:53:00,
2013-07-23 08:58:00,60.5,54.7,29.86,NW,305,0.0,9.0,81,0.00,,CLR,0.00,121.00,VWS V14.01,2013-07-23 13:58:00,
2013-07-23 09:03:00,60.7,54.5,29.87,NNE,15,2.0,5.0,80,0.00,,CLR,0.00,162.00,VWS V14.01,2013-07-23 14:03:00,
2013-07-23 09:08:00,60.7,53.8,29.87,NNW,328,0.0,6.0,78,0.00,,CLR,0.00,156.00,VWS V14.01,2013-07-23 14:08:00,
2013-07-23 09:13:00,60.9,54.3,29.88,WNW,286,1.0,6.0,79,0.00,,CLR,0.00,181.00,VWS V14.01,2013-07-23 14:13:00,
2013-07-23 09:18:00,61.3,54.0,29.88,North,355,1.0,6.0,77,0.00,,CLR,0.00,329.00,VWS V14.01,2013-07-23 14:18:00,
2013-07-23 09:23:00,61.5,54.6,29.88,NNW,339,1.0,6.0,78,0.00,,CLR,0.00,155.00,VWS V14.01,2013-07-23 14:23:00,
2013-07-23 09:28:00,61.4,54.1,29.88,WNW,285,0.0,6.0,77,0.00,,CLR,0.00,149.00,VWS V14.01,2013-07-23 14:28:00,
2013-07-23 09:33:00,61.2,53.9,29.88,NE,51,0.0,2.0,77,0.00,,CLR,0.00,174.00,VWS V14.01,2013-07-23 14:33:00,
2013-07-23 09:38:00,61.1,54.5,29.88,NE,51,0.0,2.0,79,0.00,,CLR,0.00,192.00,VWS V14.01,2013-07-23 14:38:00,
2013-07-23 09:43:00,61.1,54.9,29.87,NE,51,0.0,2.0,80,0.00,,CLR,0.00,193.00,VWS V14.01,2013-07-23 14:43:00,
2013-07-23 09:48:00,61.2,53.9,29.88,NNE,32,1.0,2.0,77,0.00,,CLR,0.00,230.00,VWS V14.01,2013-07-23 14:48:00,
2013-07-23 09:53:00,61.3,54.0,29.88,NNE,32,1.0,2.0,77,0.00,,CLR,0.00,265.00,VWS V14.01,2013-07-23 14:53:00,
2013-07-23 09:58:00,61.5,54.2,29.88,SSE,150,0.0,8.0,77,0.00,,CLR,0.00,422.00,VWS V14.01,2013-07-23 14:58:00,
2013-07-23 10:03:00,62.1,54.8,29.88,East,96,1.0,2.0,77,0.00,,SCT030,0.00,687.00,VWS V14.01,2013-07-23 15:03:00,
2013-07-23 10:08:00,62.8,55.1,29.88,West,278,0.0,2.0,76,0.00,,SCT030,0.00,338.00,VWS V14.01,2013-07-23 15:08:00,
2013-07-23 10:13:00,63.0,54.2,29.88,West,279,0.0,2.0,73,0.00,,SCT030,0.00,339.00,VWS V14.01,2013-07-23 15:13:00,
2013-07-23 10:18:00,62.7,54.3,29.89,NE,44,0.0,6.0,74,0.00,,SCT030,0.00,318.00,VWS V14.01,2013-07-23 15:18:00,
2013-07-23 10:23:00,62.4,53.3,29.89,NW,326,1.0,7.0,72,0.00,,SCT030,0.00,309.00,VWS V14.01,2013-07-23 15:23:00,
2013-07-23 10:28:00,62.3,54.3,29.89,NE,44,0.0,7.0,75,0.00,,SCT030,0.00,367.00,VWS V14.01,2013-07-23 15:28:00,
2013-07-23 10:33:00,62.3,53.5,29.89,NNE,29,0.0,2.0,73,0.00,,SCT030,0.00,410.00,VWS V14.01,2013-07-23 15:33:00,
2013-07-23 10:38:00,62.6,53.8,29.89,WNW,300,1.0,3.0,73,0.00,,SCT030,0.00,557.00,VWS V14.01,2013-07-23 15:38:00,
2013-07-23 10:43:00,63.0,53.5,29.90,East,80,0.0,5.0,71,0.00,,SCT030,0.00,476.00,VWS V14.01,2013-07-23 15:43:00,
2013-07-23 10:48:00,63.4,53.8,29.90,North,360,1.0,5.0,71,0.00,,SCT030,0.00,424.00,VWS V14.01,2013-07-23 15:48:00,
2013-07-23 10:53:00,63.9,54.3,29.90,SE,125,1.0,6.0,71,0.00,,SCT030,0.00,397.00,VWS V14.01,2013-07-23 15:53:00,
2013-07-23 10:58:00,64.4,54.4,29.90,NNW,342,0.0,6.0,70,0.00,,SCT030,0.00,1181.00,VWS V14.01,2013-07-23 15:58:00,
2013-07-23 11:03:00,64.7,55.1,29.90,NNW,344,1.0,2.0,71,0.00,,BKN036,0.00,1250.00,VWS V14.01,2013-07-23 16:03:00,
2013-07-23 11:08:00,64.5,54.5,29.90,NNW,333,2.0,3.0,70,0.00,,BKN036,0.00,422.00,VWS V14.01,2013-07-23 16:08:00,
2013-07-23 11:13:00,64.0,53.6,29.91,WNW,302,0.0,5.0,69,0.00,,BKN036,0.00,352.00,VWS V14.01,2013-07-23 16:13:00,
2013-07-23 11:18:00,63.7,53.3,29.91,North,10,0.0,5.0,69,0.00,,BKN036,0.00,1132.00,VWS V14.01,2013-07-23 16:18:00,
2013-07-23 11:23:00,63.9,53.5,29.91,East,89,1.0,5.0,69,0.00,,BKN036,0.00,294.00,VWS V14.01,2013-07-23 16:23:00,
2013-07-23 11:28:00,63.8,53.5,29.91,North,5,0.0,5.0,69,0.00,,BKN036,0.00,320.00,VWS V14.01,2013-07-23 16:28:00,
2013-07-23 11:33:00,63.8,53.0,29.91,NNW,343,0.0,4.0,68,0.00,,BKN036,0.00,455.00,VWS V14.01,2013-07-23 16:33:00,
2013-07-23 11:38:00,64.1,54.9,29.91,NNW,343,0.0,4.0,72,0.00,,BKN036,0.00,476.00,VWS V14.01,2013-07-23 16:38:00,
2013-07-23 11:43:00,64.6,55.4,29.91,NNW,334,0.0,6.0,72,0.00,,BKN036,0.00,534.00,VWS V14.01,2013-07-23 16:43:00,
2013-07-23 11:48:00,65.2,54.4,29.91,NNE,16,1.0,8.0,68,0.00,,BKN036,0.00,552.00,VWS V14.01,2013-07-23 16:48:00,
2013-07-23 11:53:00,65.4,54.6,29.91,NNE,22,1.0,8.0,68,0.00,,BKN036,0.00,552.00,VWS V14.01,2013-07-23 16:53:00,
2013-07-23 11:58:00,66.1,55.7,29.91,North,360,0.0,8.0,69,0.00,,BKN036,0.00,1049.00,VWS V14.01,2013-07-23 16:58:00,
2013-07-23 12:03:00,66.5,55.6,29.91,North,5,1.0,3.0,68,0.00,,BKN034,0.00,383.00,VWS V14.01,2013-07-23 17:03:00,
2013-07-23 12:08:00,66.2,54.5,29.91,NNW,330,0.0,3.0,66,0.00,,BKN034,0.00,332.00,VWS V14.01,2013-07-23 17:08:00,
2013-07-23 12:13:00,65.7,54.5,29.91,North,5,1.0,7.0,67,0.00,,BKN034,0.00,332.00,VWS V14.01,2013-07-23 17:13:00,
2013-07-23 12:18:00,65.6,54.4,29.91,North,5,0.0,7.0,67,0.00,,BKN034,0.00,350.00,VWS V14.01,2013-07-23 17:18:00,
2013-07-23 12:23:00,65.8,55.0,29.91,NE,39,1.0,7.0,68,0.00,,BKN034,0.00,1104.00,VWS V14.01,2013-07-23 17:23:00,
2013-07-23 12:28:00,66.2,55.7,29.91,NNW,333,0.0,9.0,69,0.00,,BKN034,0.00,1104.00,VWS V14.01,2013-07-23 17:28:00,
2013-07-23 12:33:00,66.4,54.3,29.91,NNE,15,0.0,6.0,65,0.00,,BKN034,0.00,1046.00,VWS V14.01,2013-07-23 17:33:00,
2013-07-23 12:38:00,66.6,54.9,29.91,NNE,32,1.0,7.0,66,0.00,,BKN034,0.00,735.00,VWS V14.01,2013-07-23 17:38:00,
2013-07-23 12:44:00,67.2,56.7,29.91,WSW,257,0.0,7.0,69,0.00,,BKN034,0.00,1020.00,VWS V14.01,2013-07-23 17:44:00,
2013-07-23 12:49:00,67.9,56.1,29.91,NNW,347,0.0,7.0,66,0.00,,BKN034,0.00,1030.00,VWS V14.01,2013-07-23 17:49:00,
2013-07-23 12:53:00,68.3,55.7,29.91,NNW,335,1.0,7.0,64,0.00,,BKN034,0.00,1016.00,VWS V14.01,2013-07-23 17:53:00,
2013-07-23 12:59:00,68.8,57.4,29.91,NW,325,0.0,7.0,67,0.00,,BKN034,0.00,986.00,VWS V14.01,2013-07-23 17:59:00,
2013-07-23 13:04:00,69.3,55.3,29.91,NW,311,0.0,3.0,61,0.00,,BKN038,0.00,1030.00,VWS V14.01,2013-07-23 18:04:00,
2013-07-23 13:09:00,69.4,57.6,29.91,NNW,329,0.0,5.0,66,0.00,,BKN038,0.00,1035.00,VWS V14.01,2013-07-23 18:09:00,
2013-07-23 13:14:00,69.3,55.7,29.91,ENE,67,0.0,5.0,62,0.00,,BKN038,0.00,988.00,VWS V14.01,2013-07-23 18:14:00,
2013-07-23 13:19:00,69.4,54.9,29.91,NNW,347,0.0,6.0,60,0.00,,BKN038,0.00,1136.00,VWS V14.01,2013-07-23 18:19:00,
2013-07-23 13:24:00,69.7,57.0,29.91,ESE,105,1.0,6.0,64,0.00,,BKN038,0.00,1035.00,VWS V14.01,2013-07-23 18:24:00,
2013-07-23 13:29:00,69.9,55.4,29.91,NNE,23,2.0,2.0,60,0.00,,BKN038,0.00,1072.00,VWS V14.01,2013-07-23 18:29:00,
2013-07-23 13:35:00,70.1,56.5,29.91,SE,139,2.0,3.0,62,0.00,,BKN038,0.00,1021.00,VWS V14.01,2013-07-23 18:35:00,
2013-07-23 13:40:00,70.4,55.9,29.90,SE,144,1.0,3.0,60,0.00,,BKN038,0.00,977.00,VWS V14.01,2013-07-23 18:40:00,
2013-07-23 13:45:00,70.4,57.7,29.90,WNW,294,1.0,7.0,64,0.00,,BKN038,0.00,993.00,VWS V14.01,2013-07-23 18:45:00,
2013-07-23 13:51:00,70.8,55.8,29.90,East,99,1.0,7.0,59,0.00,,BKN038,0.00,1116.00,VWS V14.01,2013-07-23 18:51:00,
2013-07-23 13:56:00,70.7,58.8,29.90,NNW,339,0.0,12.0,66,0.00,,BKN038,0.00,343.00,VWS V14.01,2013-07-23 18:56:00,
2013-07-23 14:01:00,70.9,56.3,29.90,NW,304,8.0,9.0,60,0.00,,BKN040,0.00,1021.00,VWS V14.01,2013-07-23 19:01:00,
2013-07-23 14:06:00,70.4,56.8,29.90,WNW,296,0.0,9.0,62,0.00,,BKN040,0.00,1155.00,VWS V14.01,2013-07-23 19:06:00,
2013-07-23 14:11:00,70.1,56.5,29.90,East,80,0.0,9.0,62,0.00,,BKN040,0.00,332.00,VWS V14.01,2013-07-23 19:11:00,
2013-07-23 14:16:00,70.2,56.6,29.91,ESE,123,0.0,9.0,62,0.00,,BKN040,0.00,977.00,VWS V14.01,2013-07-23 19:16:00,
2013-07-23 14:21:00,70.6,57.4,29.90,NW,323,0.0,9.0,63,0.00,,BKN040,0.00,951.00,VWS V14.01,2013-07-23 19:21:00,
2013-07-23 14:26:00,71.1,56.5,29.90,NW,313,1.0,9.0,60,0.00,,BKN040,0.00,1062.00,VWS V14.01,2013-07-23 19:26:00,
2013-07-23 14:31:00,70.9,56.8,29.90,NW,305,0.0,1.0,61,0.00,,BKN040,0.00,1028.00,VWS V14.01,2013-07-23 19:31:00,
2013-07-23 14:36:00,71.3,58.5,29.90,NW,305,0.0,1.0,64,0.00,,BKN040,0.00,988.00,VWS V14.01,2013-07-23 19:36:00,
2013-07-23 14:41:00,71.8,57.6,29.90,NW,311,3.0,5.0,61,0.00,,BKN040,0.00,965.00,VWS V14.01,2013-07-23 19:41:00,
2013-07-23 14:46:00,72.3,57.2,29.90,WNW,299,3.0,5.0,59,0.00,,BKN040,0.00,1009.00,VWS V14.01,2013-07-23 19:46:00,
2013-07-23 14:51:00,72.5,56.9,29.90,WNW,303,0.0,8.0,58,0.00,,BKN040,0.00,984.00,VWS V14.01,2013-07-23 19:51:00,
2013-07-23 14:56:00,72.9,56.3,29.90,West,268,2.0,8.0,56,0.00,,BKN040,0.00,969.00,VWS V14.01,2013-07-23 19:56:00,
2013-07-23 15:01:00,72.9,56.8,29.90,North,9,0.0,2.0,57,0.00,,BKN044,0.00,1048.00,VWS V14.01,2013-07-23 20:01:00,
2013-07-23 15:07:00,73.0,55.4,29.90,East,82,0.0,5.0,54,0.00,,BKN044,0.00,1025.00,VWS V14.01,2013-07-23 20:07:00,
2013-07-23 15:12:00,73.2,57.5,29.90,NNE,26,1.0,7.0,58,0.00,,BKN044,0.00,979.00,VWS V14.01,2013-07-23 20:12:00,
2013-07-23 15:17:00,73.1,56.0,29.90,NNW,340,0.0,7.0,55,0.00,,BKN044,0.00,1058.00,VWS V14.01,2013-07-23 20:17:00,
2013-07-23 15:22:00,72.8,55.2,29.90,WNW,302,0.0,7.0,54,0.00,,BKN044,0.00,919.00,VWS V14.01,2013-07-23 20:22:00,
2013-07-23 15:27:00,73.5,57.8,29.90,WNW,302,3.0,7.0,58,0.00,,BKN044,0.00,1000.00,VWS V14.01,2013-07-23 20:27:00,
2013-07-23 15:32:00,73.5,57.3,29.90,WNW,297,2.0,4.0,57,0.00,,BKN044,0.00,285.00,VWS V14.01,2013-07-23 20:32:00,
2013-07-23 15:37:00,73.1,58.4,29.90,WNW,297,0.0,4.0,60,0.00,,BKN044,0.00,928.00,VWS V14.01,2013-07-23 20:37:00,
2013-07-23 15:42:00,73.1,56.0,29.90,NW,324,0.0,4.0,55,0.00,,BKN044,0.00,925.00,VWS V14.01,2013-07-23 20:42:00,
2013-07-23 15:47:00,73.9,58.2,29.90,NW,324,0.0,4.0,58,0.00,,BKN044,0.00,939.00,VWS V14.01,2013-07-23 20:47:00,
2013-07-23 15:52:00,74.0,57.3,29.90,ENE,74,0.0,4.0,56,0.00,,BKN044,0.00,939.00,VWS V14.01,2013-07-23 20:52:00,
2013-07-23 15:57:00,73.8,56.6,29.90,West,278,3.0,6.0,55,0.00,,BKN044,0.00,898.00,VWS V14.01,2013-07-23 20:57:00,
2013-07-23 16:02:00,74.0,57.3,29.90,North,351,0.0,4.0,56,0.00,,FEW048,0.00,965.00,VWS V14.01,2013-07-23 21:02:00,
2013-07-23 16:07:00,73.9,56.7,29.90,NNW,333,2.0,4.0,55,0.00,,FEW048,0.00,821.00,VWS V14.01,2013-07-23 21:07:00,
2013-07-23 16:12:00,74.2,57.5,29.90,NW,317,0.0,5.0,56,0.00,,FEW048,0.00,837.00,VWS V14.01,2013-07-23 21:12:00,
2013-07-23 16:17:00,74.5,55.2,29.90,North,355,0.0,8.0,51,0.00,,FEW048,0.00,958.00,VWS V14.01,2013-07-23 21:17:00,
2013-07-23 16:22:00,73.9,55.2,29.90,WNW,303,0.0,8.0,52,0.00,,FEW048,0.00,204.00,VWS V14.01,2013-07-23 21:22:00,
2013-07-23 16:28:00,73.6,59.8,29.90,WNW,303,0.0,8.0,62,0.00,,FEW048,0.00,772.00,VWS V14.01,2013-07-23 21:28:00,
2013-07-23 16:33:00,74.0,57.3,29.90,WNW,293,0.0,5.0,56,0.00,,FEW048,0.00,197.00,VWS V14.01,2013-07-23 21:33:00,
2013-07-23 16:38:00,74.3,58.1,29.90,NW,326,1.0,5.0,57,0.00,,FEW048,0.00,722.00,VWS V14.01,2013-07-23 21:38:00,
2013-07-23 16:43:00,74.7,56.5,29.90,NW,325,0.0,5.0,53,0.00,,FEW048,0.00,766.00,VWS V14.01,2013-07-23 21:43:00,
2013-07-23 16:48:00,75.0,57.8,29.90,NW,325,0.0,5.0,55,0.00,,FEW048,0.00,752.00,VWS V14.01,2013-07-23 21:48:00,
2013-07-23 16:53:00,75.0,52.8,29.90,NW,304,2.0,5.0,46,0.00,,FEW048,0.00,853.00,VWS V14.01,2013-07-23 21:53:00,
2013-07-23 16:58:00,74.9,57.2,29.90,NW,325,0.0,5.0,54,0.00,,FEW048,0.00,373.00,VWS V14.01,2013-07-23 21:58:00,
2013-07-23 17:03:00,74.6,57.4,29.90,NW,325,0.0,1.0,55,0.00,,SCT050,0.00,225.00,VWS V14.01,2013-07-23 22:03:00,
2013-07-23 17:08:00,74.1,55.4,29.90,NW,325,0.0,1.0,52,0.00,,SCT050,0.00,197.00,VWS V14.01,2013-07-23 22:08:00,
2013-07-23 17:13:00,73.7,58.5,29.90,NW,325,0.0,1.0,59,0.00,,SCT050,0.00,691.00,VWS V14.01,2013-07-23 22:13:00,
2013-07-23 17:18:00,73.8,56.6,29.90,NW,325,0.0,1.0,55,0.00,,SCT050,0.00,202.00,VWS V14.01,2013-07-23 22:18:00,
2013-07-23 17:24:00,73.7,56.5,29.90,WSW,256,0.0,1.0,55,0.00,,SCT050,0.00,578.00,VWS V14.01,2013-07-23 22:24:00,
2013-07-23 17:29:00,73.7,53.9,29.90,NNE,13,3.0,6.0,50,0.00,,SCT050,0.00,548.00,VWS V14.01,2013-07-23 22:29:00,
2013-07-23 17:34:00,74.0,55.3,29.90,NE,55,0.0,7.0,52,0.00,,SCT050,0.00,540.00,VWS V14.01,2013-07-23 22:34:00,
2013-07-23 17:39:00,74.1,54.8,29.90,NW,316,3.0,7.0,51,0.00,,SCT050,0.00,538.00,VWS V14.01,2013-07-23 22:39:00,
2013-07-23 17:45:00,74.1,54.3,29.90,NNW,344,0.0,7.0,50,0.00,,SCT050,0.00,538.00,VWS V14.01,2013-07-23 22:45:00,
2013-07-23 17:50:00,74.0,55.3,29.91,WSW,244,0.0,7.0,52,0.00,,SCT050,0.00,494.00,VWS V14.01,2013-07-23 22:50:00,
2013-07-23 17:55:00,73.9,54.7,29.90,WSW,244,0.0,7.0,51,0.00,,SCT050,0.00,482.00,VWS V14.01,2013-07-23 22:55:00,
2013-07-23 18:00:00,74.0,55.3,29.90,WSW,244,0.0,1.0,52,0.00,,SCT050,0.00,471.00,VWS V14.01,2013-07-23 23:00:00,
2013-07-23 18:05:00,74.3,56.1,29.90,WSW,244,0.0,1.0,53,0.00,,SCT050,0.00,473.00,VWS V14.01,2013-07-23 23:05:00,
2013-07-23 18:10:00,74.0,55.3,29.91,ENE,74,0.0,4.0,52,0.00,,SCT050,0.00,188.00,VWS V14.01,2013-07-23 23:10:00,
2013-07-23 18:15:00,73.3,56.7,29.90,ENE,74,0.0,4.0,56,0.00,,SCT050,0.00,93.00,VWS V14.01,2013-07-23 23:15:00,
2013-07-23 18:20:00,72.6,55.5,29.90,ENE,74,0.0,4.0,55,0.00,,SCT050,0.00,420.00,VWS V14.01,2013-07-23 23:20:00,
2013-07-23 18:25:00,72.8,57.2,29.90,NNW,329,0.0,4.0,58,0.00,,SCT050,0.00,392.00,VWS V14.01,2013-07-23 23:25:00,
2013-07-23 18:30:00,72.8,54.7,29.90,NNW,329,0.0,0.0,53,0.00,,SCT050,0.00,396.00,VWS V14.01,2013-07-23 23:30:00,
2013-07-23 18:35:00,72.6,54.0,29.91,NNE,22,0.0,3.0,52,0.00,,SCT050,0.00,364.00,VWS V14.01,2013-07-23 23:35:00,
2013-07-23 18:40:00,72.5,55.4,29.90,NNW,342,0.0,3.0,55,0.00,,SCT050,0.00,339.00,VWS V14.01,2013-07-23 23:40:00,
2013-07-23 18:45:00,72.3,55.2,29.90,SE,138,0.0,3.0,55,0.00,,SCT050,0.00,330.00,VWS V14.01,2013-07-23 23:45:00,
2013-07-23 18:50:00,72.3,54.7,29.90,NNW,340,0.0,4.0,54,0.00,,SCT050,0.00,290.00,VWS V14.01,2013-07-23 23:50:00,
2013-07-23 18:55:00,72.2,55.2,29.91,NNW,339,0.0,4.0,55,0.00,,SCT050,0.00,267.00,VWS V14.01,2013-07-23 23:55:00,
2013-07-23 19:00:00,72.1,54.6,29.91,NNW,339,0.0,1.0,54,0.00,,FEW055,0.00,251.00,VWS V14.01,2013-07-24 00:00:00,
2013-07-23 19:05:00,72.1,54.6,29.91,NNW,339,0.0,1.0,54,0.00,,FEW055,0.00,236.00,VWS V14.01,2013-07-24 00:05:00,
2013-07-23 19:10:00,72.0,55.5,29.91,NNW,339,0.0,1.0,56,0.00,,FEW055,0.00,218.00,VWS V14.01,2013-07-24 00:10:00,
2013-07-23 19:15:00,71.6,55.1,29.91,NNW,339,0.0,1.0,56,0.00,,FEW055,0.00,207.00,VWS V14.01,2013-07-24 00:15:00,
2013-07-23 19:21:00,71.2,53.7,29.91,NNW,339,0.0,1.0,54,0.00,,FEW055,0.00,192.00,VWS V14.01,2013-07-24 00:21:00,
2013-07-23 19:25:00,70.8,54.3,29.92,NNW,339,0.0,1.0,56,0.00,,FEW055,0.00,179.00,VWS V14.01,2013-07-24 00:25:00,
2013-07-23 19:31:00,70.6,53.7,29.92,ENE,57,0.0,1.0,55,0.00,,FEW055,0.00,165.00,VWS V14.01,2013-07-24 00:31:00,
2013-07-23 19:36:00,70.5,53.6,29.92,ENE,57,0.0,2.0,55,0.00,,FEW055,0.00,148.00,VWS V14.01,2013-07-24 00:36:00,
2013-07-23 19:41:00,70.4,53.5,29.92,ENE,57,0.0,2.0,55,0.00,,FEW055,0.00,135.00,VWS V14.01,2013-07-24 00:41:00,
2013-07-23 19:46:00,70.1,53.7,29.93,ENE,57,0.0,2.0,56,0.00,,FEW055,0.00,123.00,VWS V14.01,2013-07-24 00:46:00,
2013-07-23 19:51:00,69.8,53.4,29.92,ENE,57,0.0,2.0,56,0.00,,FEW055,0.00,111.00,VWS V14.01,2013-07-24 00:51:00,
2013-07-23 19:56:00,69.5,53.6,29.92,ENE,57,0.0,2.0,57,0.00,,FEW055,0.00,98.00,VWS V14.01,2013-07-24 00:56:00,
2013-07-23 20:02:00,69.0,53.2,29.93,ENE,57,0.0,0.0,57,0.00,,CLR,0.00,83.00,VWS V14.01,2013-07-24 01:02:00,
2013-07-23 20:07:00,68.5,53.6,29.93,ENE,57,0.0,0.0,59,0.00,,CLR,0.00,72.00,VWS V14.01,2013-07-24 01:07:00,
2013-07-23 20:12:00,68.1,53.7,29.93,ENE,57,0.0,0.0,60,0.00,,CLR,0.00,60.00,VWS V14.01,2013-07-24 01:12:00,
2013-07-23 20:17:00,67.6,53.7,29.94,ENE,57,0.0,1.0,61,0.00,,CLR,0.00,47.00,VWS V14.01,2013-07-24 01:17:00,
2013-07-23 20:22:00,67.2,53.3,29.94,ENE,57,0.0,1.0,61,0.00,,CLR,0.00,16.00,VWS V14.01,2013-07-24 01:22:00,
2013-07-23 20:27:00,66.6,53.2,29.94,ENE,57,0.0,1.0,62,0.00,,CLR,0.00,26.00,VWS V14.01,2013-07-24 01:27:00,
2013-07-23 20:32:00,66.2,52.4,29.94,ENE,57,0.0,0.0,61,0.00,,CLR,0.00,16.00,VWS V14.01,2013-07-24 01:32:00,
2013-07-23 20:37:00,65.8,52.9,29.93,ENE,57,0.0,1.0,63,0.00,,CLR,0.00,5.00,VWS V14.01,2013-07-24 01:37:00,
2013-07-23 20:42:00,65.3,54.1,29.93,ENE,57,0.0,1.0,67,0.00,,CLR,0.00,0.00,VWS V14.01,2013-07-24 01:42:00,
2013-07-23 20:47:00,64.8,53.6,29.93,ENE,57,0.0,1.0,67,0.00,,CLR,0.00,0.00,VWS V14.01,2013-07-24 01:47:00,
2013-07-23 20:52:00,64.3,53.5,29.93,ENE,57,0.0,1.0,68,0.00,,CLR,0.00,0.00,VWS V14.01,2013-07-24 01:52:00,
2013-07-23 20:57:00,63.8,53.5,29.93,ENE,57,0.0,1.0,69,0.00,,CLR,0.00,0.00,VWS V14.01,2013-07-24 01:57:00,
2013-07-23 21:02:00,63.2,53.7,29.93,ENE,57,0.0,1.0,71,0.00,,CLR,0.00,0.00,VWS V14.01,2013-07-24 02:02:00,
2013-07-23 21:07:00,62.4,52.9,29.93,ENE,57,0.0,1.0,71,0.00,,CLR,0.00,0.00,VWS V14.01,2013-07-24 02:07:00,
2013-07-23 21:12:00,61.7,52.6,29.93,ENE,57,0.0,1.0,72,0.00,,CLR,0.00,0.00,VWS V14.01,2013-07-24 02:12:00,
2013-07-23 21:17:00,61.1,52.4,29.94,ENE,57,0.0,1.0,73,0.00,,CLR,0.00,0.00,VWS V14.01,2013-07-24 02:17:00,
2013-07-23 21:23:00,60.5,52.2,29.94,ENE,57,0.0,1.0,74,0.00,,CLR,0.00,0.00,VWS V14.01,2013-07-24 02:23:00,
2013-07-23 21:28:00,60.1,52.2,29.94,ENE,57,0.0,1.0,75,0.00,,CLR,0.00,0.00,VWS V14.01,2013-07-24 02:28:00,
2013-07-23 21:33:00,59.7,51.8,29.94,ENE,57,0.0,0.0,75,0.00,,CLR,0.00,0.00,VWS V14.01,2013-07-24 02:33:00,
2013-07-23 21:38:00,59.4,51.8,29.95,ENE,57,0.0,0.0,76,0.00,,CLR,0.00,0.00,VWS V14.01,2013-07-24 02:38:00,
2013-07-23 21:43:00,59.1,51.5,29.95,ENE,57,0.0,0.0,76,0.00,,CLR,0.00,0.00,VWS V14.01,2013-07-24 02:43:00,
2013-07-23 21:48:00,58.7,51.5,29.95,ENE,57,0.0,0.0,77,0.00,,CLR,0.00,0.00,VWS V14.01,2013-07-24 02:48:00,
2013-07-23 21:53:00,58.4,51.6,29.95,ENE,57,0.0,0.0,78,0.00,,CLR,0.00,0.00,VWS V14.01,2013-07-24 02:53:00,
2013-07-23 21:58:00,58.1,51.6,29.95,ENE,57,0.0,0.0,79,0.00,,CLR,0.00,0.00,VWS V14.01,2013-07-24 02:58:00,
2013-07-23 22:04:00,57.8,51.3,29.95,ENE,57,0.0,0.0,79,0.00,,CLR,0.00,0.00,VWS V14.01,2013-07-24 03:04:00,
2013-07-23 22:09:00,57.5,51.4,29.95,ENE,57,0.0,0.0,80,0.00,,CLR,0.00,0.00,VWS V14.01,2013-07-24 03:09:00,
2013-07-23 22:14:00,57.3,51.2,29.95,ENE,57,0.0,0.0,80,0.00,,CLR,0.00,0.00,VWS V14.01,2013-07-24 03:14:00,
2013-07-23 22:19:00,57.1,51.0,29.95,ENE,57,0.0,0.0,80,0.00,,CLR,0.00,0.00,VWS V14.01,2013-07-24 03:19:00,
2013-07-23 22:24:00,56.9,51.1,29.95,ENE,57,0.0,0.0,81,0.00,,CLR,0.00,0.00,VWS V14.01,2013-07-24 03:24:00,
2013-07-23 22:29:00,56.8,51.0,29.95,ENE,57,0.0,0.0,81,0.00,,CLR,0.00,0.00,VWS V14.01,2013-07-24 03:29:00,
2013-07-23 22:34:00,56.8,51.0,29.95,ENE,57,0.0,0.0,81,0.00,,CLR,0.00,0.00,VWS V14.01,2013-07-24 03:34:00,
2013-07-23 22:39:00,56.7,50.9,29.95,ENE,57,0.0,0.0,81,0.00,,CLR,0.00,0.00,VWS V14.01,2013-07-24 03:39:00,
2013-07-23 22:44:00,56.6,51.2,29.95,ENE,57,0.0,0.0,82,0.00,,CLR,0.00,0.00,VWS V14.01,2013-07-24 03:44:00,
2013-07-23 22:49:00,56.6,51.5,29.96,ENE,57,0.0,0.0,83,0.00,,CLR,0.00,0.00,VWS V14.01,2013-07-24 03:49:00,
2013-07-23 22:54:00,56.5,51.4,29.96,ENE,57,0.0,0.0,83,0.00,,CLR,0.00,0.00,VWS V14.01,2013-07-24 03:54:00,
2013-07-23 22:59:00,56.4,51.3,29.96,ENE,57,0.0,0.0,83,0.00,,CLR,0.00,0.00,VWS V14.01,2013-07-24 03:59:00,
2013-07-23 23:01:00,56.3,51.2,29.96,ENE,57,0.0,0.0,83,0.00,,CLR,0.00,0.00,VWS V14.01,2013-07-24 04:01:00,
2013-07-23 23:06:00,56.4,51.6,29.96,ENE,57,0.0,0.0,84,0.00,,CLR,0.00,0.00,VWS V14.01,2013-07-24 04:06:00,
2013-07-23 23:11:00,56.4,51.6,29.96,ENE,57,0.0,0.0,84,0.00,,CLR,0.00,0.00,VWS V14.01,2013-07-24 04:11:00,
2013-07-23 23:17:00,56.4,51.6,29.96,ENE,57,0.0,0.0,84,0.00,,CLR,0.00,0.00,VWS V14.01,2013-07-24 04:17:00,
2013-07-23 23:21:00,56.3,51.5,29.96,ENE,57,0.0,0.0,84,0.00,,CLR,0.00,0.00,VWS V14.01,2013-07-24 04:21:00,
2013-07-23 23:27:00,56.2,51.4,29.96,ENE,57,0.0,0.0,84,0.00,,CLR,0.00,0.00,VWS V14.01,2013-07-24 04:27:00,
2013-07-23 23:32:00,56.1,51.7,29.96,ENE,57,0.0,0.0,85,0.00,,CLR,0.00,0.00,VWS V14.01,2013-07-24 04:32:00,
2013-07-23 23:37:00,55.8,51.0,29.96,ENE,57,0.0,0.0,84,0.00,,CLR,0.00,0.00,VWS V14.01,2013-07-24 04:37:00,
2013-07-23 23:42:00,55.5,51.1,29.96,ENE,57,0.0,0.0,85,0.00,,CLR,0.00,0.00,VWS V14.01,2013-07-24 04:42:00,
2013-07-23 23:47:00,55.4,51.0,29.96,ENE,57,0.0,0.0,85,0.00,,CLR,0.00,0.00,VWS V14.01,2013-07-24 04:47:00,
2013-07-23 23:52:00,55.5,51.4,29.96,ENE,57,0.0,0.0,86,0.00,,CLR,0.00,0.00,VWS V14.01,2013-07-24 04:52:00,
2013-07-23 23:57:00,55.7,51.9,29.96,ENE,57,0.0,0.0,87,0.00,,CLR,0.00,0.00,VWS V14.01,2013-07-24 04:57:00,